Time;durP1;ratioP1;P1;durP2;ratioP2;P2;SDS_P1;SDS_P2;PMS_P1;PMS_P2;Temp;Humidity;BMP_temperature;BMP_pressure;BME280_temperature;BME280_humidity;BME280_pressure;Samples;Min_cycle;Max_cycle;Signal;HPM_P1;HPM_P2
2022/08/23 00:01:07;;;;;;;1.87;1.80;;;;;;;;;;4976898;28;20435;-83
2022/08/23 00:03:34;;;;;;;2.60;2.50;;;;;;;;;;4978127;28;20810;-82
2022/08/23 00:05:59;;;;;;;2.30;2.10;;;;;;;;;;4978002;28;20418;-81
2022/08/23 00:08:26;;;;;;;2.63;2.53;;;;;;;;;;4977968;28;20517;-80
2022/08/23 00:10:52;;;;;;;2.07;1.97;;;;;;;;;;4977999;28;20425;-80
2022/08/23 00:13:18;;;;;;;2.13;2.10;;;;;;;;;;4977594;28;20516;-79
2022/08/23 00:15:44;;;;;;;1.90;1.80;;;;;;;;;;4977850;28;20429;-79
2022/08/23 00:18:10;;;;;;;2.70;2.50;;;;;;;;;;4978291;28;20494;-80
2022/08/23 00:20:36;;;;;;;3.47;2.60;;;;;;;;;;4977549;28;20434;-82
2022/08/23 00:23:02;;;;;;;3.80;2.10;;;;;;;;;;4977771;28;20473;-82
2022/08/23 00:25:27;;;;;;;3.50;1.70;;;;;;;;;;4977361;28;20425;-83
2022/08/23 00:27:53;;;;;;;2.50;2.40;;;;;;;;;;4977911;28;20418;-82
2022/08/23 00:30:19;;;;;;;3.80;2.23;;;;;;;;;;4976126;28;20829;-81
2022/08/23 00:32:45;;;;;;;2.10;2.10;;;;;;;;;;4977226;28;20485;-81
2022/08/23 00:35:12;;;;;;;2.73;2.53;;;;;;;;;;4977495;28;20457;-81
2022/08/23 00:37:38;;;;;;;3.50;2.53;;;;;;;;;;4977425;28;20422;-79
2022/08/23 00:40:08;;;;;;;1.60;1.60;;;;;;;;;;4977373;28;20409;-82
2022/08/23 00:48:11;;;;;;;2.30;2.30;;;;;;;;;;4976125;28;20836;-82
2022/08/23 00:51:03;;;;;;;1.40;1.40;;;;;;;;;;4977009;28;20414;-82
2022/08/23 00:53:34;;;;;;;3.00;2.37;;;;;;;;;;4977126;28;20477;-81
2022/08/23 00:56:04;;;;;;;3.17;2.50;;;;;;;;;;4976736;28;20469;-82
2022/08/23 00:58:31;;;;;;;2.60;2.60;;;;;;;;;;4977133;28;20405;-79
2022/08/23 01:00:59;;;;;;;2.90;2.70;;;;;;;;;;4976807;28;20410;-79
2022/08/23 01:03:26;;;;;;;3.37;2.40;;;;;;;;;;4976703;28;20418;-81
2022/08/23 01:06:05;;;;;;;4.07;2.20;;;;;;;;;;4976982;28;20417;-79
2022/08/23 01:08:32;;;;;;;4.90;4.40;;;;;;;;;;4976825;28;20410;-79
2022/08/23 01:11:34;;;;;;;2.57;2.40;;;;;;;;;;4976911;28;20513;-82
2022/08/23 01:14:02;;;;;;;4.80;2.27;;;;;;;;;;4974535;28;21019;-82
2022/08/23 01:16:49;;;;;;;2.97;2.17;;;;;;;;;;4976249;28;20430;-82
2022/08/23 01:19:24;;;;;;;2.93;2.07;;;;;;;;;;4976378;28;20450;-81
2022/08/23 01:21:54;;;;;;;2.60;2.50;;;;;;;;;;4976972;28;20468;-82
2022/08/23 01:24:20;;;;;;;1.40;1.40;;;;;;;;;;4976666;28;20410;-83
2022/08/23 01:26:47;;;;;;;4.00;1.70;;;;;;;;;;4976498;28;20418;-82
2022/08/23 01:29:15;;;;;;;2.40;2.30;;;;;;;;;;4976334;28;20936;-82
2022/08/23 01:31:42;;;;;;;2.50;2.40;;;;;;;;;;4976228;28;20411;-78
2022/08/23 01:34:09;;;;;;;2.50;2.30;;;;;;;;;;4976182;28;20556;-82
2022/08/23 01:36:35;;;;;;;3.50;1.57;;;;;;;;;;4976141;28;20413;-81
2022/08/23 01:39:02;;;;;;;2.07;2.07;;;;;;;;;;4976322;28;20437;-82
2022/08/23 01:41:28;;;;;;;2.43;2.33;;;;;;;;;;4976404;28;20513;-79
2022/08/23 01:43:54;;;;;;;2.20;2.20;;;;;;;;;;4976327;28;20516;-83
2022/08/23 01:46:21;;;;;;;2.00;2.00;;;;;;;;;;4976699;28;20594;-83
2022/08/23 01:48:48;;;;;;;3.23;3.03;;;;;;;;;;4976139;28;20435;-82
2022/08/23 01:51:15;;;;;;;5.63;2.97;;;;;;;;;;4976211;28;20501;-76
2022/08/23 01:53:41;;;;;;;2.57;2.47;;;;;;;;;;4975675;28;20474;-80
2022/08/23 01:56:08;;;;;;;2.77;2.57;;;;;;;;;;4975782;28;20493;-81
2022/08/23 01:58:34;;;;;;;2.93;2.70;;;;;;;;;;4975843;28;20976;-75
2022/08/23 02:01:03;;;;;;;2.30;2.10;;;;;;;;;;4975884;28;20414;-78
2022/08/23 02:03:29;;;;;;;2.57;2.43;;;;;;;;;;4975646;28;20430;-80
2022/08/23 02:05:55;;;;;;;2.87;2.33;;;;;;;;;;4975878;28;20414;-83
2022/08/23 02:11:10;;;;;;;2.93;2.73;;;;;;;;;;4975771;28;20401;-81
2022/08/23 02:13:37;;;;;;;4.10;2.60;;;;;;;;;;4975650;28;20473;-83
2022/08/23 02:16:03;;;;;;;2.10;2.10;;;;;;;;;;4975423;28;20592;-83
2022/08/23 02:18:29;;;;;;;3.27;3.17;;;;;;;;;;4975667;28;20433;-82
2022/08/23 02:20:55;;;;;;;4.53;3.03;;;;;;;;;;4975318;28;20428;-83
2022/08/23 02:23:22;;;;;;;3.37;2.70;;;;;;;;;;4975218;28;20516;-83
2022/08/23 02:25:50;;;;;;;2.90;2.80;;;;;;;;;;4975224;28;20789;-82
2022/08/23 02:28:16;;;;;;;3.10;2.90;;;;;;;;;;4975450;28;20433;-81
2022/08/23 02:30:44;;;;;;;2.17;2.17;;;;;;;;;;4975136;28;20521;-80
2022/08/23 02:33:10;;;;;;;11.60;2.37;;;;;;;;;;4975980;28;20520;-82
2022/08/23 02:35:37;;;;;;;2.70;2.60;;;;;;;;;;4975083;28;20840;-83
2022/08/23 02:38:04;;;;;;;2.77;2.67;;;;;;;;;;4975766;28;20434;-83
2022/08/23 02:40:30;;;;;;;2.73;2.53;;;;;;;;;;4975158;28;20422;-82
2022/08/23 02:42:56;;;;;;;3.93;3.00;;;;;;;;;;4975176;28;20524;-82
2022/08/23 02:45:22;;;;;;;5.27;3.10;;;;;;;;;;4975082;28;20782;-82
2022/08/23 02:47:49;;;;;;;3.43;3.23;;;;;;;;;;4974787;28;20430;-79
2022/08/23 02:50:15;;;;;;;2.00;2.00;;;;;;;;;;4974856;28;20973;-76
2022/08/23 02:52:41;;;;;;;1.67;1.67;;;;;;;;;;4974766;28;20462;-83
2022/08/23 02:55:07;;;;;;;3.00;2.10;;;;;;;;;;4974496;28;20912;-82
2022/08/23 02:57:33;;;;;;;3.60;2.30;;;;;;;;;;4974955;28;20428;-83
2022/08/23 02:59:59;;;;;;;2.63;2.63;;;;;;;;;;4974936;28;20524;-83
2022/08/23 03:02:25;;;;;;;6.33;3.17;;;;;;;;;;4975156;28;20422;-83
2022/08/23 03:04:51;;;;;;;3.10;3.00;;;;;;;;;;4975025;28;20430;-81
2022/08/23 03:07:17;;;;;;;2.23;2.13;;;;;;;;;;4973333;28;20217;-80
2022/08/23 03:09:43;;;;;;;3.13;2.60;;;;;;;;;;4974268;28;20422;-78
2022/08/23 03:12:09;;;;;;;3.97;3.87;;;;;;;;;;4974760;28;20437;-81
2022/08/23 03:14:36;;;;;;;2.73;2.57;;;;;;;;;;4974833;28;20418;-83
2022/08/23 03:17:03;;;;;;;3.07;2.40;;;;;;;;;;4974651;28;20568;-81
2022/08/23 03:19:29;;;;;;;2.73;2.50;;;;;;;;;;4974783;28;20422;-79
2022/08/23 03:21:55;;;;;;;3.10;3.00;;;;;;;;;;4974669;28;20418;-82
2022/08/23 03:24:21;;;;;;;2.37;2.37;;;;;;;;;;4974543;28;20414;-82
2022/08/23 03:26:47;;;;;;;3.90;2.90;;;;;;;;;;4974620;28;20433;-82
2022/08/23 03:29:13;;;;;;;2.40;2.40;;;;;;;;;;4974654;28;20414;-81
2022/08/23 03:31:40;;;;;;;2.80;2.70;;;;;;;;;;4974230;28;20432;-83
2022/08/23 03:34:06;;;;;;;2.50;2.40;;;;;;;;;;4974285;28;20465;-82
2022/08/23 03:36:33;;;;;;;2.77;2.67;;;;;;;;;;4974573;28;20476;-78
2022/08/23 03:38:59;;;;;;;6.93;3.10;;;;;;;;;;4974442;28;20505;-82
2022/08/23 03:41:25;;;;;;;4.93;2.90;;;;;;;;;;4974524;28;20421;-80
2022/08/23 03:43:51;;;;;;;4.20;2.77;;;;;;;;;;4974174;28;20430;-81
2022/08/23 03:46:23;;;;;;;2.40;2.30;;;;;;;;;;4974445;28;20414;-82
2022/08/23 03:48:54;;;;;;;3.00;2.90;;;;;;;;;;4974539;28;20406;-78
2022/08/23 03:51:21;;;;;;;2.40;2.10;;;;;;;;;;4974449;28;20426;-82
2022/08/23 03:53:48;;;;;;;3.13;2.23;;;;;;;;;;4972738;28;20478;-83
2022/08/23 03:56:40;;;;;;;7.50;3.00;;;;;;;;;;4973982;28;20470;-83
2022/08/23 03:59:10;;;;;;;2.90;2.80;;;;;;;;;;4973854;28;20438;-82
2022/08/23 04:01:36;;;;;;;7.77;2.70;;;;;;;;;;4974298;28;20421;-82
2022/08/23 04:04:02;;;;;;;4.33;2.60;;;;;;;;;;4974251;28;20425;-82
2022/08/23 04:06:30;;;;;;;2.60;2.50;;;;;;;;;;4973098;28;20545;-80
2022/08/23 04:08:56;;;;;;;2.60;2.60;;;;;;;;;;4974217;28;20413;-83
2022/08/23 04:11:24;;;;;;;2.83;2.83;;;;;;;;;;4974177;28;20521;-81
2022/08/23 04:13:50;;;;;;;3.07;2.77;;;;;;;;;;4974270;28;20485;-83
2022/08/23 04:16:17;;;;;;;3.37;2.87;;;;;;;;;;4974146;28;20913;-80
2022/08/23 04:18:44;;;;;;;2.70;2.60;;;;;;;;;;4974000;28;20433;-83
2022/08/23 04:21:12;;;;;;;3.23;3.10;;;;;;;;;;4975281;28;20461;-82
2022/08/23 04:23:38;;;;;;;4.30;2.87;;;;;;;;;;4977575;28;20426;-81
2022/08/23 04:26:05;;;;;;;3.13;2.93;;;;;;;;;;4977634;28;20422;-82
2022/08/23 04:28:31;;;;;;;3.57;3.37;;;;;;;;;;4977649;28;20473;-82
2022/08/23 04:30:59;;;;;;;3.70;3.50;;;;;;;;;;4977559;28;20507;-80
2022/08/23 04:33:25;;;;;;;3.40;3.30;;;;;;;;;;4977414;28;20565;-77
2022/08/23 04:35:51;;;;;;;3.83;3.33;;;;;;;;;;4977260;28;20425;-81
2022/08/23 04:38:17;;;;;;;3.63;2.73;;;;;;;;;;4977438;28;20418;-80
2022/08/23 04:43:28;;;;;;;3.70;3.57;;;;;;;;;;4977333;28;20918;-83
2022/08/23 04:45:55;;;;;;;4.40;3.30;;;;;;;;;;4977279;28;20411;-80
2022/08/23 04:48:22;;;;;;;3.30;3.20;;;;;;;;;;4977565;28;20418;-83
2022/08/23 04:50:48;;;;;;;5.87;3.90;;;;;;;;;;4977273;28;20417;-79
2022/08/23 04:53:14;;;;;;;4.00;3.47;;;;;;;;;;4977030;28;20476;-81
2022/08/23 04:55:40;;;;;;;6.00;2.80;;;;;;;;;;4976946;28;20879;-81
2022/08/23 04:58:06;;;;;;;3.60;3.47;;;;;;;;;;4977124;28;20414;-82
2022/08/23 05:00:32;;;;;;;3.03;2.93;;;;;;;;;;4976824;28;20917;-82
2022/08/23 05:02:58;;;;;;;3.30;3.00;;;;;;;;;;4976651;28;20426;-83
2022/08/23 05:05:26;;;;;;;3.17;2.97;;;;;;;;;;4976752;28;20508;-77
2022/08/23 05:07:52;;;;;;;5.27;3.63;;;;;;;;;;4976933;28;20468;-82
2022/08/23 05:10:18;;;;;;;3.17;3.03;;;;;;;;;;4976613;28;20426;-82
2022/08/23 05:12:46;;;;;;;3.10;3.00;;;;;;;;;;4976603;28;20517;-81
2022/08/23 05:15:12;;;;;;;5.33;3.67;;;;;;;;;;4976481;28;20465;-79
2022/08/23 05:17:38;;;;;;;5.23;3.10;;;;;;;;;;4976551;28;20516;-80
2022/08/23 05:20:05;;;;;;;10.40;3.40;;;;;;;;;;4977100;28;20433;-80
2022/08/23 05:22:35;;;;;;;3.33;3.20;;;;;;;;;;4975959;28;20421;-77
2022/08/23 05:25:01;;;;;;;3.63;3.17;;;;;;;;;;4976327;28;20437;-80
2022/08/23 05:27:29;;;;;;;4.27;4.07;;;;;;;;;;4976214;28;20414;-76
2022/08/23 05:29:56;;;;;;;3.67;3.47;;;;;;;;;;4976424;28;20482;-78
2022/08/23 05:32:24;;;;;;;3.33;3.27;;;;;;;;;;4975349;28;20410;-80
2022/08/23 05:34:50;;;;;;;4.50;3.63;;;;;;;;;;4976339;28;20862;-82
2022/08/23 05:37:16;;;;;;;3.40;3.30;;;;;;;;;;4976147;28;20446;-82
2022/08/23 05:39:42;;;;;;;5.43;3.40;;;;;;;;;;4976321;28;20426;-82
2022/08/23 05:42:09;;;;;;;3.10;3.00;;;;;;;;;;4975783;28;20773;-82
2022/08/23 05:44:36;;;;;;;3.70;3.53;;;;;;;;;;4976150;28;20794;-81
2022/08/23 05:47:02;;;;;;;3.80;3.50;;;;;;;;;;4976060;28;20426;-82
2022/08/23 05:49:28;;;;;;;2.77;2.77;;;;;;;;;;4976209;28;20762;-82
2022/08/23 05:51:55;;;;;;;3.40;3.10;;;;;;;;;;4976070;28;20788;-81
2022/08/23 05:54:24;;;;;;;2.90;2.80;;;;;;;;;;4974125;28;21108;-75
2022/08/23 05:56:50;;;;;;;3.43;2.97;;;;;;;;;;4975871;28;20418;-78
2022/08/23 05:59:18;;;;;;;3.67;3.40;;;;;;;;;;4976063;28;20453;-82
2022/08/23 06:01:44;;;;;;;4.33;3.47;;;;;;;;;;4974236;28;20804;-82
2022/08/23 06:04:11;;;;;;;3.33;3.10;;;;;;;;;;4975885;28;20418;-80
2022/08/23 06:06:38;;;;;;;3.30;3.07;;;;;;;;;;4975760;28;20414;-81
2022/08/23 06:09:05;;;;;;;3.83;3.53;;;;;;;;;;4975281;28;20422;-85
2022/08/23 06:11:31;;;;;;;3.60;3.50;;;;;;;;;;4975770;28;20469;-81
2022/08/23 06:13:59;;;;;;;3.67;3.37;;;;;;;;;;4975279;28;21011;-80
2022/08/23 06:16:29;;;;;;;5.33;3.83;;;;;;;;;;4975425;28;20410;-77
2022/08/23 06:18:56;;;;;;;5.43;2.90;;;;;;;;;;4975664;28;20434;-81
2022/08/23 06:21:22;;;;;;;4.37;3.83;;;;;;;;;;4975448;28;20410;-77
2022/08/23 06:23:49;;;;;;;5.37;3.60;;;;;;;;;;4975245;28;20414;-85
2022/08/23 06:26:16;;;;;;;5.00;4.70;;;;;;;;;;4975300;28;20414;-85
2022/08/23 06:28:44;;;;;;;9.67;4.90;;;;;;;;;;4975193;28;20422;-85
2022/08/23 06:31:10;;;;;;;4.40;4.10;;;;;;;;;;4975541;28;20460;-88
2022/08/23 06:33:37;;;;;;;2.73;2.73;;;;;;;;;;4973804;28;20494;-83
2022/08/23 06:36:05;;;;;;;6.10;3.70;;;;;;;;;;4975398;28;20788;-85
2022/08/23 06:38:31;;;;;;;3.03;2.83;;;;;;;;;;4975621;28;20423;-91
2022/08/23 06:41:04;;;;;;;4.00;3.57;;;;;;;;;;4975761;28;20457;-86
2022/08/23 06:43:30;;;;;;;8.27;3.23;;;;;;;;;;4975194;28;20485;-86
2022/08/23 06:46:16;;;;;;;3.50;3.30;;;;;;;;;;4975294;28;20426;-88
2022/08/23 06:48:43;;;;;;;4.13;3.70;;;;;;;;;;4974870;28;20882;-86
2022/08/23 06:51:10;;;;;;;3.13;3.03;;;;;;;;;;4974933;28;20517;-84
2022/08/23 06:53:36;;;;;;;3.93;3.73;;;;;;;;;;4975024;28;20593;-80
2022/08/23 06:56:02;;;;;;;4.67;3.80;;;;;;;;;;4974676;28;20462;-88
2022/08/23 06:58:28;;;;;;;3.73;3.43;;;;;;;;;;4975088;28;20450;-86
2022/08/23 07:00:54;;;;;;;3.40;3.20;;;;;;;;;;4974773;28;20417;-83
2022/08/23 07:03:20;;;;;;;6.83;4.50;;;;;;;;;;4974936;28;20426;-86
2022/08/23 07:05:46;;;;;;;4.53;3.13;;;;;;;;;;4974810;28;20421;-80
2022/08/23 07:08:12;;;;;;;4.23;3.87;;;;;;;;;;4974886;28;20178;-81
2022/08/23 07:10:38;;;;;;;3.63;3.43;;;;;;;;;;4975179;28;20410;-83
2022/08/23 07:13:04;;;;;;;4.83;4.33;;;;;;;;;;4975042;28;20901;-86
2022/08/23 07:15:30;;;;;;;5.30;3.60;;;;;;;;;;4974752;28;20429;-87
2022/08/23 07:17:56;;;;;;;2.70;2.60;;;;;;;;;;4974651;28;20179;-79
2022/08/23 07:20:22;;;;;;;3.10;2.53;;;;;;;;;;4974706;28;20228;-78
2022/08/23 07:22:48;;;;;;;16.17;4.10;;;;;;;;;;4974290;28;20422;-86
2022/08/23 07:25:14;;;;;;;2.73;2.10;;;;;;;;;;4974453;28;20426;-74
2022/08/23 07:27:41;;;;;;;3.17;3.07;;;;;;;;;;4974928;28;20422;-89
2022/08/23 07:30:08;;;;;;;3.90;3.70;;;;;;;;;;4974747;28;20426;-88
2022/08/23 07:32:34;;;;;;;3.80;3.60;;;;;;;;;;4974617;28;20426;-81
2022/08/23 07:35:00;;;;;;;4.10;3.10;;;;;;;;;;4972918;28;20438;-78
2022/08/23 07:37:27;;;;;;;3.73;3.43;;;;;;;;;;4974482;28;20479;-75
2022/08/23 07:39:53;;;;;;;4.50;4.10;;;;;;;;;;4974557;28;20517;-88
2022/08/23 07:42:19;;;;;;;4.27;3.20;;;;;;;;;;4974407;28;20489;-80
2022/08/23 07:44:45;;;;;;;5.20;3.23;;;;;;;;;;4974584;28;20505;-84
2022/08/23 07:47:11;;;;;;;3.60;3.40;;;;;;;;;;4974331;28;20972;-85
2022/08/23 07:49:37;;;;;;;3.70;3.60;;;;;;;;;;4974223;28;20521;-89
2022/08/23 07:52:03;;;;;;;4.23;3.80;;;;;;;;;;4974622;28;20430;-81
2022/08/23 07:54:29;;;;;;;4.13;3.80;;;;;;;;;;4973959;28;20580;-74
2022/08/23 07:56:55;;;;;;;3.77;3.47;;;;;;;;;;4976414;28;20835;-83
2022/08/23 07:59:22;;;;;;;3.27;3.17;;;;;;;;;;4977983;28;20453;-79
2022/08/23 08:01:48;;;;;;;5.90;3.30;;;;;;;;;;4977836;28;20446;-86
2022/08/23 08:04:14;;;;;;;3.87;3.57;;;;;;;;;;4978046;28;20435;-84
2022/08/23 08:06:40;;;;;;;4.03;3.73;;;;;;;;;;4978297;28;20514;-85
2022/08/23 08:09:07;;;;;;;5.00;4.17;;;;;;;;;;4977957;28;20889;-85
2022/08/23 08:11:34;;;;;;;2.67;2.57;;;;;;;;;;4978026;28;20562;-82
2022/08/23 08:14:01;;;;;;;4.00;3.37;;;;;;;;;;4977574;28;20571;-85
2022/08/23 08:16:47;;;;;;;5.00;2.90;;;;;;;;;;4977575;28;20417;-85
2022/08/23 08:19:14;;;;;;;3.00;2.67;;;;;;;;;;4977832;28;20438;-85
2022/08/23 08:21:41;;;;;;;13.93;3.90;;;;;;;;;;4977573;28;20426;-77
2022/08/23 08:24:08;;;;;;;3.80;3.50;;;;;;;;;;4977542;28;20437;-84
2022/08/23 08:26:34;;;;;;;3.80;3.60;;;;;;;;;;4977469;28;20498;-87
2022/08/23 08:29:01;;;;;;;6.03;3.07;;;;;;;;;;4977622;28;20455;-75
2022/08/23 08:31:27;;;;;;;4.93;4.00;;;;;;;;;;4978427;28;20457;-88
2022/08/23 08:33:52;;;;;;;3.93;3.47;;;;;;;;;;4977164;28;20909;-88
2022/08/23 08:36:34;;;;;;;3.20;3.20;;;;;;;;;;4977208;28;20513;-83
2022/08/23 08:39:01;;;;;;;4.47;3.50;;;;;;;;;;4977102;28;20422;-88
2022/08/23 08:41:39;;;;;;;6.40;3.85;;;;;;;;;;4976611;28;20410;-73
2022/08/23 08:44:24;;;;;;;4.13;3.70;;;;;;;;;;4977353;28;20198;-72
2022/08/23 08:46:52;;;;;;;3.50;3.23;;;;;;;;;;4975477;28;20430;-73
2022/08/23 08:49:25;;;;;;;3.33;3.17;;;;;;;;;;4977221;28;20492;-74
2022/08/23 08:51:57;;;;;;;3.70;3.50;;;;;;;;;;4976964;28;20410;-74
2022/08/23 08:54:25;;;;;;;8.40;3.27;;;;;;;;;;4975377;28;20509;-73
2022/08/23 08:56:52;;;;;;;3.23;2.40;;;;;;;;;;4976644;28;20417;-72
2022/08/23 08:59:30;;;;;;;3.87;3.67;;;;;;;;;;4976827;28;20425;-72
2022/08/23 09:01:57;;;;;;;3.97;2.87;;;;;;;;;;4976941;28;20410;-72
2022/08/23 09:04:24;;;;;;;2.87;2.77;;;;;;;;;;4976963;28;20545;-72
2022/08/23 09:07:00;;;;;;;3.73;3.53;;;;;;;;;;4976429;28;20429;-72
2022/08/23 09:09:47;;;;;;;2.63;2.53;;;;;;;;;;4975040;28;20964;-72
2022/08/23 09:12:32;;;;;;;2.37;2.27;;;;;;;;;;4976639;28;20930;-72
2022/08/23 09:15:16;;;;;;;3.30;3.10;;;;;;;;;;4976714;28;20440;-73
2022/08/23 09:17:53;;;;;;;3.37;2.30;;;;;;;;;;4976499;28;20425;-73
2022/08/23 09:20:21;;;;;;;4.67;3.07;;;;;;;;;;4976807;28;20410;-72
2022/08/23 09:22:50;;;;;;;4.63;4.07;;;;;;;;;;4976321;28;20953;-73
2022/08/23 09:25:16;;;;;;;5.53;2.87;;;;;;;;;;4976897;28;20879;-73
2022/08/23 09:27:43;;;;;;;3.00;2.90;;;;;;;;;;4976337;28;20418;-73
2022/08/23 09:30:10;;;;;;;3.00;2.90;;;;;;;;;;4977067;28;20430;-74
2022/08/23 09:32:37;;;;;;;7.30;3.60;;;;;;;;;;4976430;28;20430;-72
2022/08/23 09:35:21;;;;;;;3.50;3.10;;;;;;;;;;4976312;28;20781;-74
2022/08/23 09:37:49;;;;;;;5.13;3.27;;;;;;;;;;4975928;28;20497;-74
2022/08/23 09:40:15;;;;;;;2.40;2.27;;;;;;;;;;4976352;28;20426;-72
2022/08/23 09:42:42;;;;;;;8.33;2.70;;;;;;;;;;4976351;28;20917;-74
2022/08/23 09:45:26;;;;;;;7.03;2.80;;;;;;;;;;4976226;28;20194;-72
2022/08/23 09:47:52;;;;;;;6.47;2.30;;;;;;;;;;4975922;28;20513;-72
2022/08/23 09:50:26;;;;;;;2.60;2.47;;;;;;;;;;4976211;28;20453;-73
2022/08/23 09:53:18;;;;;;;4.13;2.93;;;;;;;;;;4975894;28;20468;-73
2022/08/23 09:55:48;;;;;;;6.33;2.63;;;;;;;;;;4975297;28;20509;-74
2022/08/23 09:58:28;;;;;;;10.10;3.27;;;;;;;;;;4976034;28;20422;-74
2022/08/23 10:01:06;;;;;;;2.43;2.33;;;;;;;;;;4975818;28;20414;-73
2022/08/23 10:03:32;;;;;;;2.97;2.50;;;;;;;;;;4975916;28;20429;-72
2022/08/23 10:05:59;;;;;;;4.83;3.10;;;;;;;;;;4976117;28;20415;-71
2022/08/23 10:08:36;;;;;;;3.40;2.83;;;;;;;;;;4974923;28;20832;-73
2022/08/23 10:11:11;;;;;;;6.83;2.73;;;;;;;;;;4974314;28;20410;-72
2022/08/23 10:13:38;;;;;;;2.60;2.50;;;;;;;;;;4975688;28;20465;-72
2022/08/23 10:16:04;;;;;;;2.67;2.57;;;;;;;;;;4975396;28;20426;-71
2022/08/23 10:18:49;;;;;;;2.50;2.40;;;;;;;;;;4975573;28;20433;-73
2022/08/23 10:21:18;;;;;;;2.67;2.57;;;;;;;;;;4975600;28;20441;-72
2022/08/23 10:23:47;;;;;;;2.60;2.60;;;;;;;;;;4975305;28;20436;-72
2022/08/23 10:26:34;;;;;;;2.33;2.33;;;;;;;;;;4975251;28;20782;-73
2022/08/23 10:31:50;;;;;;;2.33;2.23;;;;;;;;;;4975243;28;20437;-75
2022/08/23 10:34:23;;;;;;;3.80;2.93;;;;;;;;;;4975044;28;20549;-70
2022/08/23 10:37:04;;;;;;;2.40;2.40;;;;;;;;;;4973772;28;20421;-75
2022/08/23 10:39:32;;;;;;;2.43;2.33;;;;;;;;;;4975367;28;20533;-83
2022/08/23 10:42:03;;;;;;;11.40;3.33;;;;;;;;;;4975129;28;20418;-88
2022/08/23 10:44:32;;;;;;;3.50;3.00;;;;;;;;;;4975000;28;20465;-75
2022/08/23 10:47:04;;;;;;;2.50;2.40;;;;;;;;;;4975303;28;20410;-81
2022/08/23 10:49:32;;;;;;;3.50;3.27;;;;;;;;;;4975234;28;20825;-77
2022/08/23 10:51:59;;;;;;;3.80;2.67;;;;;;;;;;4974684;28;20429;-85
2022/08/23 10:54:44;;;;;;;2.30;2.20;;;;;;;;;;4974510;28;20473;-83
2022/08/23 10:57:13;;;;;;;2.40;2.40;;;;;;;;;;4974837;28;20790;-76
2022/08/23 10:59:39;;;;;;;10.07;3.10;;;;;;;;;;4975061;28;20426;-90
2022/08/23 11:02:21;;;;;;;2.17;2.07;;;;;;;;;;4974654;28;20422;-87
2022/08/23 11:04:51;;;;;;;3.03;2.50;;;;;;;;;;4974590;28;20425;-81
2022/08/23 11:07:17;;;;;;;3.80;2.60;;;;;;;;;;4973331;28;20437;-83
2022/08/23 11:09:49;;;;;;;2.93;2.47;;;;;;;;;;4973224;28;20422;-79
2022/08/23 11:12:20;;;;;;;5.10;3.00;;;;;;;;;;4974456;28;20444;-81
2022/08/23 11:14:48;;;;;;;2.10;2.10;;;;;;;;;;4974608;28;20470;-84
2022/08/23 11:17:29;;;;;;;3.03;2.60;;;;;;;;;;4974783;28;20782;-87
2022/08/23 11:19:55;;;;;;;2.40;2.30;;;;;;;;;;4974434;28;20414;-86
2022/08/23 11:22:24;;;;;;;2.97;2.57;;;;;;;;;;4974217;28;20421;-85
2022/08/23 11:24:53;;;;;;;2.60;2.50;;;;;;;;;;4974391;28;20210;-82
2022/08/23 11:27:26;;;;;;;2.87;2.67;;;;;;;;;;4974442;28;20426;-82
2022/08/23 11:29:52;;;;;;;4.20;2.57;;;;;;;;;;4974225;28;20430;-80
2022/08/23 11:32:30;;;;;;;4.83;2.43;;;;;;;;;;4973994;28;20430;-83
2022/08/23 11:34:56;;;;;;;4.67;2.30;;;;;;;;;;4973925;28;20780;-88
2022/08/23 11:37:25;;;;;;;6.00;2.57;;;;;;;;;;4974382;28;20410;-68
2022/08/23 11:39:57;;;;;;;2.80;2.60;;;;;;;;;;4974974;28;20414;-84
2022/08/23 11:42:43;;;;;;;2.70;2.50;;;;;;;;;;4974184;28;20501;-84
2022/08/23 11:45:27;;;;;;;4.13;3.40;;;;;;;;;;4973932;28;20436;-84
2022/08/23 11:48:05;;;;;;;2.60;2.50;;;;;;;;;;4974265;28;20476;-85
2022/08/23 11:50:41;;;;;;;2.30;2.20;;;;;;;;;;4972593;28;20797;-69
2022/08/23 11:53:13;;;;;;;3.27;2.00;;;;;;;;;;4974223;28;20480;-69
2022/08/23 11:55:58;;;;;;;2.50;2.33;;;;;;;;;;4972733;28;20477;-69
2022/08/23 11:58:45;;;;;;;2.63;2.53;;;;;;;;;;4974381;28;20414;-69
2022/08/23 12:01:13;;;;;;;2.57;2.43;;;;;;;;;;4974260;28;20489;-70
2022/08/23 12:03:54;;;;;;;3.53;2.43;;;;;;;;;;4974337;28;20422;-69
2022/08/23 12:06:26;;;;;;;4.40;2.90;;;;;;;;;;4974212;28;20428;-69
2022/08/23 12:09:00;;;;;;;5.40;2.63;;;;;;;;;;4974096;28;20918;-69
2022/08/23 12:11:46;;;;;;;2.43;2.33;;;;;;;;;;4973914;28;20962;-69
2022/08/23 12:14:30;;;;;;;3.23;1.90;;;;;;;;;;4973732;28;20516;-69
2022/08/23 12:16:57;;;;;;;2.50;2.30;;;;;;;;;;4974094;28;20417;-69
2022/08/23 12:19:39;;;;;;;2.27;2.27;;;;;;;;;;4974140;28;20455;-69
2022/08/23 12:22:09;;;;;;;3.00;2.77;;;;;;;;;;4974876;28;20409;-69
2022/08/23 12:24:43;;;;;;;2.33;2.20;;;;;;;;;;4974158;28;20430;-69
2022/08/23 12:27:26;;;;;;;2.50;2.50;;;;;;;;;;4973802;28;20453;-68
2022/08/23 12:29:58;;;;;;;8.60;2.50;;;;;;;;;;4973822;28;20434;-69
2022/08/23 12:32:27;;;;;;;5.33;3.57;;;;;;;;;;4974082;28;20429;-69
2022/08/23 12:34:59;;;;;;;2.83;2.73;;;;;;;;;;4973876;28;20489;-69
2022/08/23 12:37:25;;;;;;;14.73;3.90;;;;;;;;;;4974069;28;20505;-69
2022/08/23 12:39:53;;;;;;;3.03;2.50;;;;;;;;;;4973971;28;20501;-69
2022/08/23 12:42:25;;;;;;;2.73;2.53;;;;;;;;;;4975442;28;20281;-69
2022/08/23 12:45:21;;;;;;;2.90;2.70;;;;;;;;;;4977404;28;20418;-69
2022/08/23 12:47:57;;;;;;;3.10;3.00;;;;;;;;;;4977449;28;20524;-69
2022/08/23 12:50:26;;;;;;;11.33;2.90;;;;;;;;;;4977101;28;20429;-69
2022/08/23 12:53:03;;;;;;;2.33;2.23;;;;;;;;;;4976799;28;20472;-69
2022/08/23 12:55:31;;;;;;;4.30;1.90;;;;;;;;;;4977093;28;20469;-69
2022/08/23 12:57:58;;;;;;;4.53;2.00;;;;;;;;;;4977229;28;20418;-69
2022/08/23 13:00:27;;;;;;;2.63;2.23;;;;;;;;;;4977118;28;20524;-69
2022/08/23 13:03:10;;;;;;;4.33;2.17;;;;;;;;;;4977028;28;20418;-69
2022/08/23 13:05:36;;;;;;;4.77;2.90;;;;;;;;;;4976988;28;20512;-69
2022/08/23 13:08:03;;;;;;;2.10;2.00;;;;;;;;;;4976990;28;20464;-69
2022/08/23 13:10:30;;;;;;;3.67;1.90;;;;;;;;;;4976999;28;20457;-69
2022/08/23 13:12:56;;;;;;;6.87;2.60;;;;;;;;;;4976648;28;20548;-69
2022/08/23 13:15:40;;;;;;;2.30;2.20;;;;;;;;;;4976576;28;20437;-68
2022/08/23 13:18:06;;;;;;;2.60;2.50;;;;;;;;;;4976919;28;20890;-69
2022/08/23 13:20:32;;;;;;;3.27;2.30;;;;;;;;;;4976526;28;20433;-69
2022/08/23 13:23:08;;;;;;;2.77;2.67;;;;;;;;;;4975124;28;20441;-69
2022/08/23 13:25:38;;;;;;;2.67;2.47;;;;;;;;;;4976687;28;20810;-69
2022/08/23 13:28:21;;;;;;;2.57;2.47;;;;;;;;;;4976354;28;20766;-70
2022/08/23 13:30:57;;;;;;;2.57;2.47;;;;;;;;;;4976627;28;20437;-69
2022/08/23 13:33:23;;;;;;;2.87;2.60;;;;;;;;;;4976021;28;20457;-69
2022/08/23 13:35:51;;;;;;;1.90;1.80;;;;;;;;;;4976044;28;20894;-69
2022/08/23 13:38:25;;;;;;;2.90;2.50;;;;;;;;;;4976011;28;20918;-69
2022/08/23 13:40:51;;;;;;;6.03;2.00;;;;;;;;;;4976247;28;20422;-69
2022/08/23 13:43:22;;;;;;;2.20;2.00;;;;;;;;;;4976318;28;20826;-69
2022/08/23 13:45:51;;;;;;;1.93;1.93;;;;;;;;;;4976512;28;20615;-69
2022/08/23 13:48:22;;;;;;;2.60;2.40;;;;;;;;;;4976069;28;20418;-69
2022/08/23 13:50:48;;;;;;;3.70;2.20;;;;;;;;;;4976020;28;20422;-69
2022/08/23 13:53:14;;;;;;;2.00;2.00;;;;;;;;;;4975265;28;20532;-74
2022/08/23 13:55:42;;;;;;;3.00;2.90;;;;;;;;;;4975408;28;20469;-66
2022/08/23 13:58:12;;;;;;;3.07;2.80;;;;;;;;;;4976056;28;20626;-67
2022/08/23 14:00:38;;;;;;;2.30;2.30;;;;;;;;;;4976059;28;20421;-67
2022/08/23 14:03:04;;;;;;;2.07;1.80;;;;;;;;;;4975916;28;20522;-67
2022/08/23 14:05:30;;;;;;;9.63;2.50;;;;;;;;;;4975568;28;20520;-66
2022/08/23 14:07:56;;;;;;;2.10;2.03;;;;;;;;;;4975638;28;20418;-66
2022/08/23 14:10:22;;;;;;;3.37;2.10;;;;;;;;;;4975715;28;20422;-67
2022/08/23 14:12:49;;;;;;;4.87;2.93;;;;;;;;;;4975701;28;20513;-67
2022/08/23 14:15:16;;;;;;;2.30;2.20;;;;;;;;;;4975682;28;20529;-67
2022/08/23 14:17:44;;;;;;;9.33;3.00;;;;;;;;;;4975406;28;20417;-67
2022/08/23 14:20:11;;;;;;;4.37;2.53;;;;;;;;;;4975422;28;20468;-67
2022/08/23 14:22:37;;;;;;;2.60;2.50;;;;;;;;;;4974864;28;20441;-66
2022/08/23 14:25:05;;;;;;;2.17;2.00;;;;;;;;;;4975244;28;20968;-66
2022/08/23 14:27:31;;;;;;;6.17;2.40;;;;;;;;;;4973945;28;20867;-67
2022/08/23 14:29:57;;;;;;;2.43;2.33;;;;;;;;;;4975070;28;20877;-67
2022/08/23 14:32:23;;;;;;;2.27;2.17;;;;;;;;;;4975089;28;20410;-67
2022/08/23 14:34:49;;;;;;;2.40;2.30;;;;;;;;;;4975254;28;20469;-66
2022/08/23 14:37:15;;;;;;;2.20;2.10;;;;;;;;;;4974963;28;20472;-67
2022/08/23 14:39:41;;;;;;;2.40;2.30;;;;;;;;;;4975166;28;20426;-67
2022/08/23 14:42:07;;;;;;;2.50;2.20;;;;;;;;;;4974968;28;20580;-66
2022/08/23 14:44:33;;;;;;;2.13;2.00;;;;;;;;;;4974921;28;20429;-67
2022/08/23 14:46:59;;;;;;;2.40;2.40;;;;;;;;;;4975052;28;20417;-66
2022/08/23 14:49:25;;;;;;;9.80;3.60;;;;;;;;;;4974770;28;20441;-67
2022/08/23 14:54:54;;;;;;;2.40;2.30;;;;;;;;;;4974341;28;20505;-66
2022/08/23 14:57:20;;;;;;;2.03;1.93;;;;;;;;;;4974656;28;20918;-67
2022/08/23 14:59:46;;;;;;;3.60;2.40;;;;;;;;;;4974621;28;20418;-66
2022/08/23 15:02:15;;;;;;;2.30;2.20;;;;;;;;;;4974647;28;20416;-66
2022/08/23 15:04:41;;;;;;;3.47;2.53;;;;;;;;;;4974177;28;20509;-66
2022/08/23 15:07:07;;;;;;;2.00;1.90;;;;;;;;;;4974126;28;20461;-67
2022/08/23 15:09:33;;;;;;;2.83;2.50;;;;;;;;;;4974775;28;20430;-66
2022/08/23 15:11:59;;;;;;;5.30;2.43;;;;;;;;;;4974530;28;20854;-66